Time;durP1;ratioP1;P1;durP2;ratioP2;P2;SDS_P1;SDS_P2;PMS_P1;PMS_P2;Temp;Humidity;BMP_temperature;BMP_pressure;BME280_temperature;BME280_humidity;BME280_pressure;Samples;Min_cycle;Max_cycle;Signal;HPM_P1;HPM_P2
2023/04/21 00:02:01;;;;;;;5.72;5.22;;;;;;;9.72;88.01;95990.56;5073609;28;20469;-67
2023/04/21 00:04:31;;;;;;;8.18;5.50;;;;;;;9.70;87.47;95988.94;5072973;28;20414;-66
2023/04/21 00:07:00;;;;;;;8.50;5.53;;;;;;;9.64;87.03;95990.06;5073567;28;20127;-66
2023/04/21 00:09:27;;;;;;;10.00;5.30;;;;;;;9.63;86.73;95988.34;5073583;28;20123;-66
2023/04/21 00:11:55;;;;;;;8.05;5.72;;;;;;;9.52;86.35;95980.13;5073402;28;20411;-67
2023/04/21 00:14:22;;;;;;;8.32;5.22;;;;;;;9.42;86.62;95980.53;5073526;28;20501;-66
2023/04/21 00:16:51;;;;;;;6.05;5.28;;;;;;;9.39;86.75;95978.03;5073421;28;20048;-67
2023/04/21 00:19:19;;;;;;;5.30;4.60;;;;;;;9.34;85.91;95980.84;5073438;28;20048;-68
2023/04/21 00:21:47;;;;;;;9.43;4.60;;;;;;;9.28;85.71;95975.03;5073345;28;20131;-66
2023/04/21 00:24:14;;;;;;;5.45;4.95;;;;;;;9.21;85.34;95974.44;5073319;28;20448;-68
2023/04/21 00:26:42;;;;;;;9.20;4.88;;;;;;;9.17;84.86;95965.03;5073554;28;20048;-67
2023/04/21 00:29:09;;;;;;;6.22;5.10;;;;;;;9.14;84.71;95965.16;5073047;28;20524;-68
2023/04/21 00:31:36;;;;;;;9.10;4.82;;;;;;;9.02;84.72;95962.16;5073264;28;20097;-66
2023/04/21 00:34:03;;;;;;;5.18;4.43;;;;;;;8.93;84.33;95959.94;5073237;28;20118;-68
2023/04/21 00:36:31;;;;;;;4.82;4.32;;;;;;;8.82;84.18;95963.00;5073169;28;20084;-67
2023/04/21 00:39:05;;;;;;;4.70;4.20;;;;;;;8.63;84.11;95963.72;5073069;28;20060;-67
2023/04/21 00:41:34;;;;;;;4.88;4.03;;;;;;;8.55;84.05;95964.00;5073069;28;20078;-67
2023/04/21 00:44:04;;;;;;;4.15;3.47;;;;;;;8.46;84.15;95956.53;5073200;28;20056;-67
2023/04/21 00:46:37;;;;;;;6.43;4.15;;;;;;;8.42;83.89;95960.13;5073120;28;20486;-69
2023/04/21 00:49:06;;;;;;;8.55;4.00;;;;;;;8.38;83.90;95959.44;5073039;28;20051;-67
2023/04/21 00:51:35;;;;;;;5.38;4.32;;;;;;;8.37;84.01;95951.66;5073100;28;20490;-66
2023/04/21 00:54:08;;;;;;;8.13;4.32;;;;;;;8.27;84.02;95954.63;5072994;28;20055;-66
2023/04/21 00:56:36;;;;;;;6.35;3.53;;;;;;;8.18;84.32;95955.81;5072965;28;20052;-67
2023/04/21 00:59:03;;;;;;;6.10;4.05;;;;;;;8.04;84.07;95952.88;5073271;28;20044;-66
2023/04/21 01:01:33;;;;;;;5.22;4.00;;;;;;;7.96;84.97;95953.16;5073077;28;20414;-66
2023/04/21 01:04:01;;;;;;;8.10;5.05;;;;;;;7.93;84.88;95946.31;5073096;28;20102;-68
2023/04/21 01:06:29;;;;;;;5.65;4.35;;;;;;;7.91;84.85;95945.53;5073361;28;20044;-67
2023/04/21 01:08:56;;;;;;;4.20;3.60;;;;;;;7.75;83.96;95940.03;5072967;28;20060;-67
2023/04/21 01:11:25;;;;;;;6.07;4.07;;;;;;;7.61;84.34;95942.28;5073285;28;20053;-66
2023/04/21 01:13:53;;;;;;;5.30;4.13;;;;;;;7.44;84.67;95939.34;5072807;28;20058;-67
2023/04/21 01:16:21;;;;;;;6.55;3.85;;;;;;;7.39;85.19;95945.63;5075511;28;20045;-68
2023/04/21 01:18:49;;;;;;;6.75;3.58;;;;;;;7.40;85.24;95949.94;5076863;28;20066;-68
2023/04/21 01:21:17;;;;;;;7.07;4.00;;;;;;;7.39;85.21;95943.91;5077173;28;20051;-69
2023/04/21 01:23:47;;;;;;;4.40;3.63;;;;;;;7.32;85.16;95939.81;5076815;28;20049;-66
2023/04/21 01:26:14;;;;;;;3.88;3.47;;;;;;;7.30;85.50;95939.00;5076793;28;20045;-67
2023/04/21 01:28:41;;;;;;;6.00;3.85;;;;;;;7.30;85.87;95936.41;5076767;28;20051;-67
2023/04/21 01:31:09;;;;;;;11.32;3.80;;;;;;;7.30;84.75;95929.44;5076522;28;20502;-66
2023/04/21 01:33:36;;;;;;;3.95;3.60;;;;;;;7.19;87.82;95936.75;5076745;28;20490;-67
2023/04/21 01:36:04;;;;;;;5.43;3.80;;;;;;;7.20;88.75;95935.88;5076502;28;20055;-66
2023/04/21 01:38:32;;;;;;;9.40;3.22;;;;;;;7.19;87.42;95929.81;5076621;28;20562;-66
2023/04/21 01:41:00;;;;;;;6.82;2.97;;;;;;;7.11;85.92;95925.78;5076491;28;20076;-66
2023/04/21 01:43:28;;;;;;;3.47;3.15;;;;;;;7.09;85.75;95931.03;5076416;28;20056;-68
2023/04/21 01:45:56;;;;;;;4.10;3.58;;;;;;;7.03;85.79;95924.28;5076283;28;20048;-66
2023/04/21 01:48:23;;;;;;;6.38;3.30;;;;;;;7.06;85.35;95924.19;5076002;28;20056;-67
2023/04/21 01:50:50;;;;;;;4.35;2.90;;;;;;;7.03;85.38;95920.81;5076275;28;20440;-68
2023/04/21 01:53:17;;;;;;;3.90;2.80;;;;;;;7.04;85.58;95923.38;5076247;28;20098;-67
2023/04/21 01:55:44;;;;;;;14.07;3.53;;;;;;;7.03;85.67;95924.28;5076227;28;20048;-67
2023/04/21 01:58:13;;;;;;;12.82;3.28;;;;;;;7.03;85.45;95919.09;5075880;28;20052;-65
2023/04/21 02:00:40;;;;;;;7.47;3.40;;;;;;;7.07;85.37;95912.88;5076002;28;20049;-66
2023/04/21 02:03:08;;;;;;;6.93;3.08;;;;;;;7.06;84.96;95912.94;5076094;28;20062;-67
2023/04/21 02:05:35;;;;;;;14.75;3.83;;;;;;;7.04;84.77;95914.72;5076011;28;20087;-67
2023/04/21 02:08:02;;;;;;;3.47;2.78;;;;;;;7.04;84.98;95917.31;5076031;28;20110;-67
2023/04/21 02:10:29;;;;;;;3.53;3.15;;;;;;;7.10;85.70;95924.09;5075892;28;20490;-66
2023/04/21 02:12:57;;;;;;;3.92;3.42;;;;;;;7.09;85.47;95912.81;5075939;28;20719;-67
2023/04/21 02:15:26;;;;;;;7.28;3.35;;;;;;;7.12;85.20;95917.91;5075828;28;20101;-67
2023/04/21 02:17:53;;;;;;;3.75;3.03;;;;;;;7.11;85.21;95907.56;5075726;28;20527;-67
2023/04/21 02:20:20;;;;;;;6.88;3.78;;;;;;;7.07;84.94;95909.41;5075972;28;20410;-67
2023/04/21 02:22:47;;;;;;;9.93;3.72;;;;;;;7.05;85.20;95911.22;5075689;28;20094;-68
2023/04/21 02:25:15;;;;;;;4.90;2.95;;;;;;;7.06;85.42;95913.78;5075925;28;20044;-67
2023/04/21 02:27:42;;;;;;;3.42;3.13;;;;;;;6.92;84.71;95908.19;5074886;28;20049;-68
2023/04/21 02:30:09;;;;;;;6.63;2.97;;;;;;;6.83;85.35;95905.00;5075616;28;20044;-67
2023/04/21 02:32:38;;;;;;;6.43;3.45;;;;;;;6.79;84.99;95911.22;5075665;28;20045;-68
2023/04/21 02:35:06;;;;;;;5.90;3.25;;;;;;;6.68;85.50;95903.75;5075554;28;20105;-68
2023/04/21 02:37:34;;;;;;;7.90;3.17;;;;;;;6.57;85.26;95908.47;5075219;28;20478;-66
2023/04/21 02:40:02;;;;;;;6.75;3.13;;;;;;;6.47;84.95;95912.25;5075413;28;20047;-65
2023/04/21 02:42:29;;;;;;;7.00;3.13;;;;;;;6.49;85.56;95907.84;5075300;28;20485;-66
2023/04/21 02:44:56;;;;;;;5.18;3.20;;;;;;;6.52;85.30;95908.59;5075330;28;20091;-66
2023/04/21 02:47:23;;;;;;;4.28;2.92;;;;;;;6.43;84.88;95911.47;5074989;28;20044;-66
2023/04/21 02:49:52;;;;;;;3.50;3.20;;;;;;;6.38;85.12;95906.44;5075152;28;20052;-68
2023/04/21 02:52:19;;;;;;;7.93;3.10;;;;;;;6.24;85.02;95908.63;5075107;28;20045;-68
2023/04/21 02:54:46;;;;;;;5.18;3.78;;;;;;;6.15;85.71;95902.81;5075061;28;20109;-67
2023/04/21 02:57:13;;;;;;;3.80;3.50;;;;;;;6.15;85.51;95908.00;5074904;28;20106;-66
2023/04/21 02:59:41;;;;;;;3.72;3.22;;;;;;;6.10;84.98;95899.50;5075098;28;20093;-68
2023/04/21 03:02:08;;;;;;;5.55;3.50;;;;;;;5.99;85.49;95898.94;5074991;28;20048;-67
2023/04/21 03:04:35;;;;;;;3.53;3.22;;;;;;;5.91;85.73;95902.63;5074947;28;20149;-67
2023/04/21 03:07:03;;;;;;;6.82;3.67;;;;;;;5.85;85.57;95901.94;5074830;28;20052;-67
2023/04/21 03:09:30;;;;;;;4.25;3.08;;;;;;;5.81;85.70;95901.19;5074814;28;20052;-67
2023/04/21 03:11:58;;;;;;;5.20;3.70;;;;;;;5.87;85.42;95911.38;5074701;28;20429;-68
2023/04/21 03:14:25;;;;;;;9.80;3.30;;;;;;;5.90;85.90;95913.06;5074651;28;20087;-66
2023/04/21 03:16:52;;;;;;;3.88;3.47;;;;;;;5.92;85.69;95912.09;5074603;28;20095;-66
2023/04/21 03:19:20;;;;;;;5.13;3.40;;;;;;;5.82;85.11;95911.50;5074651;28;20127;-66
2023/04/21 03:21:47;;;;;;;6.40;3.65;;;;;;;5.84;84.79;95908.88;5074761;28;20076;-66
2023/04/21 03:24:16;;;;;;;7.63;5.00;;;;;;;5.81;84.48;95911.59;5074517;28;20080;-66
2023/04/21 03:26:43;;;;;;;11.93;3.42;;;;;;;5.78;84.35;95899.53;5074403;28;20131;-66
2023/04/21 03:29:11;;;;;;;5.45;4.25;;;;;;;5.74;84.41;95908.28;5074229;28;20517;-66
2023/04/21 03:31:38;;;;;;;3.67;3.08;;;;;;;5.70;84.24;95906.69;5074335;28;20083;-67
2023/04/21 03:34:06;;;;;;;11.15;3.42;;;;;;;5.66;83.95;95912.88;5074375;28;20045;-68
2023/04/21 03:36:33;;;;;;;5.40;3.53;;;;;;;5.68;84.03;95908.47;5074351;28;20049;-66
2023/04/21 03:39:00;;;;;;;4.95;3.78;;;;;;;5.64;84.15;95914.66;5073082;28;20135;-66
2023/04/21 03:41:29;;;;;;;4.10;3.70;;;;;;;5.58;84.66;95918.28;5074126;28;20091;-67
2023/04/21 03:43:56;;;;;;;4.90;4.40;;;;;;;5.43;85.51;95912.63;5074034;28;20086;-66
2023/04/21 03:46:23;;;;;;;5.57;3.80;;;;;;;5.49;85.50;95918.53;5074001;28;20048;-68
2023/04/21 03:48:51;;;;;;;4.97;4.50;;;;;;;5.48;86.33;95929.81;5073697;28;20056;-68
2023/04/21 03:51:18;;;;;;;7.05;6.35;;;;;;;5.46;86.48;95916.88;5073951;28;20437;-66
2023/04/21 03:53:47;;;;;;;9.20;4.90;;;;;;;5.44;86.77;95919.50;5073845;28;20056;-66
2023/04/21 03:56:14;;;;;;;5.10;4.60;;;;;;;5.46;87.29;95922.06;5073880;28;20162;-67
2023/04/21 03:58:43;;;;;;;7.53;4.82;;;;;;;5.51;87.43;95919.34;5073831;28;20056;-67
2023/04/21 04:01:12;;;;;;;7.97;4.95;;;;;;;5.46;86.67;95913.41;5073809;28;20478;-68
2023/04/21 04:03:39;;;;;;;8.80;5.00;;;;;;;5.46;86.63;95923.78;5073644;28;20052;-68
2023/04/21 04:06:06;;;;;;;4.15;3.75;;;;;;;5.46;86.91;95923.78;5073671;28;20049;-65
2023/04/21 04:08:35;;;;;;;8.30;4.43;;;;;;;5.52;86.75;95927.09;5073691;28;20494;-68
2023/04/21 04:11:02;;;;;;;7.80;3.92;;;;;;;5.73;87.79;95921.31;5073893;28;20087;-67
2023/04/21 04:13:30;;;;;;;10.52;4.18;;;;;;;6.09;86.88;95922.91;5073462;28;20076;-68
2023/04/21 04:15:58;;;;;;;5.15;4.15;;;;;;;6.60;87.34;95925.69;5073580;28;20440;-66
2023/04/21 04:18:26;;;;;;;10.77;3.60;;;;;;;7.08;84.54;95924.13;5073353;28;20079;-68
2023/04/21 04:20:53;;;;;;;7.65;3.70;;;;;;;7.57;81.51;95918.97;5073513;28;20067;-68
2023/04/21 04:23:20;;;;;;;6.15;3.00;;;;;;;8.12;80.38;95923.97;5073577;28;20044;-67
2023/04/21 04:25:50;;;;;;;6.22;2.80;;;;;;;8.59;75.97;95925.63;5073297;28;20044;-66
2023/04/21 04:28:18;;;;;;;9.48;3.08;;;;;;;9.10;75.16;95926.16;5073476;28;20075;-66
2023/04/21 04:30:45;;;;;;;4.38;2.60;;;;;;;9.58;72.80;95925.06;5073337;28;20106;-66
2023/04/21 04:33:15;;;;;;;3.00;2.75;;;;;;;10.03;70.97;95924.81;5073246;28;20044;-68
2023/04/21 04:35:43;;;;;;;3.10;2.67;;;;;;;10.51;69.70;95934.88;5072918;28;20048;-66
2023/04/21 04:38:11;;;;;;;3.13;2.80;;;;;;;10.95;67.17;95936.25;5073131;28;20052;-68
2023/04/21 04:40:38;;;;;;;13.45;3.80;;;;;;;11.37;67.09;95942.03;5073251;28;20162;-67
2023/04/21 04:43:07;;;;;;;19.67;3.72;;;;;;;11.73;66.52;95933.22;5073202;28;20490;-67
2023/04/21 04:45:35;;;;;;;4.00;3.25;;;;;;;12.12;66.00;95933.81;5073101;28;20048;-67
2023/04/21 04:48:02;;;;;;;7.10;3.15;;;;;;;12.41;64.49;95922.69;5072935;28;20544;-67
2023/04/21 04:50:31;;;;;;;4.65;2.53;;;;;;;12.71;64.27;95935.00;5072716;28;20076;-65
2023/04/21 04:52:58;;;;;;;7.22;2.85;;;;;;;12.72;64.41;95938.47;5073012;28;20052;-65
2023/04/21 04:55:25;;;;;;;3.58;2.95;;;;;;;12.53;64.18;95952.63;5073137;28;20049;-67
2023/04/21 04:57:53;;;;;;;4.28;2.92;;;;;;;12.32;63.67;95952.88;5073165;28;20467;-67
2023/04/21 05:00:21;;;;;;;4.45;3.50;;;;;;;12.07;63.88;95948.94;5073052;28;20055;-66
2023/04/21 05:02:48;;;;;;;4.20;3.22;;;;;;;11.78;64.95;95950.44;5072897;28;20098;-67
2023/04/21 05:05:15;;;;;;;4.95;2.90;;;;;;;11.55;66.68;95961.19;5072902;28;20079;-67
2023/04/21 05:07:44;;;;;;;3.60;2.67;;;;;;;11.31;68.44;95961.50;5072911;28;20131;-67
2023/04/21 05:10:11;;;;;;;2.83;2.63;;;;;;;11.19;69.52;95956.88;5072761;28;20131;-66
2023/04/21 05:12:39;;;;;;;3.35;3.05;;;;;;;11.11;70.62;95957.28;5072899;28;20095;-65
2023/04/21 05:15:11;;;;;;;3.95;2.80;;;;;;;11.00;72.36;95955.19;5072836;28;20040;-65
2023/04/21 05:17:38;;;;;;;4.05;3.28;;;;;;;10.90;73.16;95957.41;5072629;28;20052;-68
2023/04/21 05:20:09;;;;;;;3.72;3.40;;;;;;;10.91;73.79;95956.50;5072867;28;20445;-67
2023/04/21 05:22:38;;;;;;;4.18;3.78;;;;;;;10.92;74.85;95957.31;5072657;28;20083;-66
2023/04/21 05:25:08;;;;;;;8.02;3.97;;;;;;;11.01;75.74;95956.88;5072778;28;20050;-69
2023/04/21 05:27:36;;;;;;;10.35;5.65;;;;;;;11.12;76.27;95946.75;5072641;28;20060;-69
2023/04/21 05:30:04;;;;;;;7.38;5.28;;;;;;;11.11;77.06;95941.59;5072715;28;20060;-65
2023/04/21 05:32:31;;;;;;;4.93;4.45;;;;;;;11.15;76.74;95944.88;5072753;28;20452;-66
2023/04/21 05:34:59;;;;;;;6.63;4.70;;;;;;;11.14;76.50;95948.44;5072606;28;20080;-68
2023/04/21 05:37:26;;;;;;;7.10;4.10;;;;;;;11.00;76.42;95947.34;5072794;28;20044;-67
2023/04/21 05:39:54;;;;;;;4.88;4.38;;;;;;;11.07;76.25;95940.00;5072656;28;20049;-68
2023/04/21 05:42:22;;;;;;;4.57;4.10;;;;;;;11.20;76.19;95945.50;5072622;28;20494;-68
2023/04/21 05:44:50;;;;;;;5.00;4.13;;;;;;;11.35;75.63;95947.34;5072490;28;20063;-66
2023/04/21 05:47:19;;;;;;;7.80;3.90;;;;;;;11.44;75.18;95955.66;5072323;28;20072;-67
2023/04/21 05:49:48;;;;;;;4.53;4.05;;;;;;;11.50;74.99;95950.13;5072443;28;20131;-66
2023/04/21 05:52:17;;;;;;;4.63;4.00;;;;;;;11.59;74.50;95944.38;5072356;28;20407;-66
2023/04/21 05:54:44;;;;;;;4.43;3.97;;;;;;;11.70;75.35;95950.84;5072481;28;20127;-66
2023/04/21 05:57:11;;;;;;;6.45;4.50;;;;;;;11.82;75.68;95946.72;5072421;28;20135;-65
2023/04/21 05:59:40;;;;;;;4.32;3.92;;;;;;;11.94;76.24;95945.25;5072475;28;20044;-67
2023/04/21 06:02:07;;;;;;;3.97;3.58;;;;;;;12.05;75.68;95942.91;5072881;28;20045;-68
2023/04/21 06:04:34;;;;;;;7.60;3.85;;;;;;;12.17;74.91;95937.97;5075919;28;20053;-67
2023/04/21 06:07:06;;;;;;;3.50;3.13;;;;;;;12.25;74.56;95933.13;5076146;28;20048;-68
2023/04/21 06:09:33;;;;;;;4.32;3.92;;;;;;;12.20;75.65;95937.78;5076026;28;20056;-66
2023/04/21 06:12:00;;;;;;;4.40;3.83;;;;;;;12.20;76.63;95943.03;5075889;28;20098;-68
2023/04/21 06:14:27;;;;;;;4.70;3.88;;;;;;;12.26;78.14;95945.34;5075817;28;20406;-68
2023/04/21 06:16:57;;;;;;;5.25;3.97;;;;;;;12.11;79.05;95937.38;5075782;28;20379;-69
2023/04/21 06:19:26;;;;;;;7.65;4.03;;;;;;;12.11;79.55;95945.25;5075616;28;20387;-68
2023/04/21 06:21:53;;;;;;;4.82;4.03;;;;;;;12.16;79.12;95933.66;5075602;28;20409;-66
2023/04/21 06:24:24;;;;;;;4.45;4.03;;;;;;;12.25;78.32;95930.50;5075746;28;20067;-68
2023/04/21 06:26:52;;;;;;;4.28;3.88;;;;;;;12.31;76.38;95937.22;5075689;28;20048;-66
2023/04/21 06:29:20;;;;;;;5.43;3.55;;;;;;;12.32;75.31;95947.63;5075721;28;20049;-68
2023/04/21 06:31:47;;;;;;;4.75;3.70;;;;;;;12.42;76.21;95934.00;5075473;28;20052;-67
2023/04/21 06:34:15;;;;;;;5.90;3.92;;;;;;;12.52;79.69;95940.41;5075420;28;20041;-67
2023/04/21 06:36:43;;;;;;;4.47;4.07;;;;;;;12.68;79.51;95936.94;5075404;28;20414;-67
2023/04/21 11:56:18;;;;;;;8.93;2.60;;;;;;;19.07;44.65;95899.66;5057402;28;20063;-66
2023/04/21 11:58:47;;;;;;;2.55;1.98;;;;;;;18.97;42.36;95901.41;5073815;28;20157;-66
2023/04/21 12:01:16;;;;;;;4.25;2.80;;;;;;;19.05;41.93;95898.94;5073059;28;20041;-66
2023/04/21 12:03:50;;;;;;;4.47;2.80;;;;;;;19.15;41.67;95893.78;5074013;28;20049;-66
2023/04/21 12:06:21;;;;;;;8.63;5.20;;;;;;;19.35;41.08;95885.97;5073785;28;20135;-66
2023/04/21 12:08:48;;;;;;;7.13;3.97;;;;;;;19.39;42.57;95898.81;5073865;28;20051;-65
2023/04/21 12:11:18;;;;;;;4.03;3.40;;;;;;;19.52;42.10;95897.78;5073618;28;20087;-66
2023/04/21 12:13:45;;;;;;;4.53;3.10;;;;;;;19.78;42.69;95905.34;5073572;28;20564;-66
2023/04/21 12:16:13;;;;;;;5.18;2.50;;;;;;;20.12;41.13;95901.59;5073555;28;20489;-66
2023/04/21 12:18:40;;;;;;;5.72;2.30;;;;;;;20.33;42.37;95901.56;5073434;28;20140;-66
2023/04/21 12:21:07;;;;;;;2.80;2.47;;;;;;;20.41;41.04;95899.03;5073562;28;20044;-66
2023/04/21 12:23:34;;;;;;;5.82;2.92;;;;;;;20.16;40.99;95882.63;5073631;28;20128;-67
2023/04/21 12:26:01;;;;;;;3.47;2.78;;;;;;;19.93;40.51;95881.97;5073438;28;20044;-68
2023/04/21 12:28:30;;;;;;;3.05;2.75;;;;;;;20.04;36.81;95891.66;5073328;28;20084;-67
2023/04/21 12:30:57;;;;;;;3.58;2.45;;;;;;;20.04;36.02;95892.50;5073265;28;20131;-66
2023/04/21 12:33:24;;;;;;;3.40;2.55;;;;;;;19.92;35.16;95888.22;5073260;28;20044;-66
2023/04/21 12:35:51;;;;;;;6.30;2.80;;;;;;;19.89;37.10;95878.72;5073588;28;20044;-66
2023/04/21 12:38:18;;;;;;;4.38;1.98;;;;;;;19.88;34.82;95886.81;5073298;28;20410;-66
2023/04/21 12:40:46;;;;;;;4.80;2.55;;;;;;;19.68;34.16;95878.75;5073164;28;20055;-67
2023/04/21 12:43:13;;;;;;;5.55;2.53;;;;;;;19.80;34.53;95883.00;5073224;28;20551;-66
2023/04/21 12:45:41;;;;;;;4.35;2.38;;;;;;;19.63;36.15;95873.00;5073162;28;20054;-66
2023/04/21 12:48:08;;;;;;;8.02;3.10;;;;;;;19.47;37.48;95865.53;5073298;28;20045;-66
2023/04/21 12:50:36;;;;;;;4.40;2.75;;;;;;;19.43;37.13;95880.84;5073058;28;20387;-67
2023/04/21 12:53:03;;;;;;;6.20;2.45;;;;;;;19.43;36.15;95879.03;5073232;28;20052;-66
2023/04/21 12:55:30;;;;;;;8.63;2.75;;;;;;;19.58;37.27;95862.78;5072994;28;20128;-66
2023/04/21 12:57:58;;;;;;;3.75;2.35;;;;;;;19.74;34.98;95869.44;5072850;28;20076;-66
2023/04/21 13:00:25;;;;;;;2.65;2.30;;;;;;;19.50;32.19;95876.69;5072956;28;20050;-66
2023/04/21 13:02:54;;;;;;;3.17;2.13;;;;;;;19.11;32.93;95874.63;5072891;28;20049;-66
2023/04/21 13:05:21;;;;;;;10.52;2.50;;;;;;;18.90;35.28;95878.06;5072962;28;20094;-66
2023/04/21 13:07:48;;;;;;;2.67;2.22;;;;;;;18.78;36.06;95871.13;5072882;28;20048;-66
2023/04/21 13:10:15;;;;;;;4.40;2.50;;;;;;;18.60;37.18;95879.59;5072923;28;20124;-65
2023/04/21 13:12:42;;;;;;;4.07;2.50;;;;;;;18.56;36.70;95876.38;5076674;28;20129;-66
2023/04/21 13:15:10;;;;;;;3.88;2.70;;;;;;;18.50;36.88;95874.22;5077051;28;20475;-66
2023/04/21 13:17:38;;;;;;;3.50;2.22;;;;;;;18.41;36.25;95867.00;5076866;28;20049;-66
2023/04/21 13:20:08;;;;;;;3.30;2.42;;;;;;;18.49;37.96;95869.03;5076967;28;20414;-66
2023/04/21 13:22:35;;;;;;;5.82;2.35;;;;;;;18.55;35.86;95868.56;5076922;28;20087;-66
2023/04/21 13:25:03;;;;;;;5.43;3.00;;;;;;;18.69;38.36;95860.31;5076797;28;20124;-66
2023/04/21 13:27:32;;;;;;;6.68;2.00;;;;;;;18.87;36.62;95862.41;5076717;28;20049;-66
2023/04/21 13:30:00;;;;;;;5.57;2.30;;;;;;;19.12;36.84;95857.78;5076958;28;20491;-66
2023/04/21 13:32:27;;;;;;;5.00;2.60;;;;;;;19.29;38.80;95861.63;5076592;28;20049;-66
2023/04/21 13:34:54;;;;;;;5.18;2.83;;;;;;;18.92;41.57;95869.97;5076593;28;20084;-67
2023/04/21 13:37:22;;;;;;;4.38;2.38;;;;;;;18.51;41.18;95867.94;5076527;28;20555;-66
2023/04/21 13:39:49;;;;;;;3.40;2.35;;;;;;;18.07;41.92;95865.25;5076471;28;20052;-66
2023/04/21 13:42:16;;;;;;;6.75;2.67;;;;;;;17.64;42.96;95869.44;5076462;28;20494;-66
2023/04/21 13:44:44;;;;;;;5.05;2.60;;;;;;;17.35;44.33;95859.28;5076389;28;20135;-66
2023/04/21 13:47:11;;;;;;;4.47;2.65;;;;;;;17.25;44.55;95867.09;5076419;28;20049;-66
2023/04/21 13:49:39;;;;;;;3.30;2.78;;;;;;;17.10;45.10;95871.72;5076257;28;20455;-66
2023/04/21 13:52:06;;;;;;;2.30;2.10;;;;;;;17.09;45.69;95881.44;5076186;28;20132;-66
2023/04/21 13:54:35;;;;;;;7.25;2.90;;;;;;;16.88;47.90;95876.78;5076300;28;20051;-66
2023/04/21 13:57:02;;;;;;;6.78;2.90;;;;;;;16.85;48.06;95884.94;5076065;28;20414;-65
2023/04/21 13:59:31;;;;;;;3.25;2.92;;;;;;;16.64;48.65;95880.28;5076046;28;20493;-66
2023/04/21 14:01:58;;;;;;;5.07;3.00;;;;;;;16.44;49.27;95884.38;5076220;28;20045;-66
2023/04/21 14:04:26;;;;;;;4.32;3.40;;;;;;;16.40;49.89;95883.75;5075953;28;20048;-66
2023/04/21 14:06:53;;;;;;;4.32;2.85;;;;;;;16.53;50.06;95883.69;5076145;28;20059;-66
2023/04/21 14:09:21;;;;;;;8.05;3.40;;;;;;;16.56;48.64;95882.66;5075942;28;20051;-66
2023/04/21 14:11:50;;;;;;;8.65;3.28;;;;;;;16.57;49.19;95884.31;5075957;28;20208;-66
2023/04/21 14:14:17;;;;;;;4.88;3.05;;;;;;;16.55;48.53;95886.22;5076244;28;20078;-66
2023/04/21 14:16:47;;;;;;;4.40;2.90;;;;;;;16.61;49.05;95893.69;5075915;28;20482;-66
2023/04/21 14:19:15;;;;;;;5.82;2.85;;;;;;;16.58;49.89;95893.91;5075896;28;20152;-65
2023/04/21 14:21:43;;;;;;;8.52;3.20;;;;;;;16.61;48.62;95885.78;5075793;28;20128;-66
2023/04/21 14:24:10;;;;;;;3.13;2.78;;;;;;;16.59;49.59;95886.84;5074768;28;20055;-66
2023/04/21 14:26:37;;;;;;;3.05;2.50;;;;;;;16.62;49.28;95887.47;5075732;28;20445;-66
2023/04/21 14:29:06;;;;;;;3.80;2.65;;;;;;;16.58;47.29;95891.28;5075705;28;20067;-66
2023/04/21 14:31:33;;;;;;;4.22;2.70;;;;;;;16.53;47.06;95893.44;5075516;28;20045;-66
2023/04/21 14:34:01;;;;;;;4.22;2.30;;;;;;;16.55;46.78;95888.88;5075662;28;20132;-65
2023/04/21 14:36:28;;;;;;;5.15;2.67;;;;;;;16.68;47.59;95888.84;5075419;28;20127;-66
2023/04/21 14:38:55;;;;;;;2.70;2.45;;;;;;;16.71;47.42;95883.34;5075330;28;20050;-66
2023/04/21 14:41:22;;;;;;;3.30;2.80;;;;;;;16.77;48.50;95882.84;5075498;28;20087;-66
2023/04/21 14:43:52;;;;;;;5.00;2.55;;;;;;;16.80;48.14;95887.09;5075414;28;20044;-66
2023/04/21 14:46:21;;;;;;;7.70;2.55;;;;;;;16.79;48.79;95886.22;5075541;28;20118;-66
2023/04/21 14:48:51;;;;;;;5.05;2.95;;;;;;;16.85;48.15;95887.56;5075181;28;20048;-66
2023/04/21 14:51:18;;;;;;;6.70;3.27;;;;;;;16.82;47.96;95885.16;5075223;28;20044;-66
2023/04/21 14:53:46;;;;;;;4.32;2.92;;;;;;;16.86;48.98;95889.25;5075122;28;20296;-66
2023/04/21 14:56:14;;;;;;;3.05;2.72;;;;;;;16.83;48.61;95881.59;5074890;28;20095;-66
2023/04/21 14:58:41;;;;;;;3.63;2.75;;;;;;;16.84;48.20;95888.53;5075111;28;20045;-66
2023/04/21 15:01:09;;;;;;;4.65;2.63;;;;;;;16.66;49.03;95883.66;5074956;28;20056;-66
2023/04/21 15:03:38;;;;;;;3.72;2.45;;;;;;;16.50;48.88;95883.09;5074944;28;20087;-66
2023/04/21 15:06:06;;;;;;;3.80;2.65;;;;;;;16.28;48.89;95889.91;5074878;28;20044;-66
2023/04/21 15:08:33;;;;;;;2.67;2.40;;;;;;;16.07;49.26;95895.75;5074957;28;20049;-66
2023/04/21 15:11:01;;;;;;;2.95;2.65;;;;;;;15.78;50.29;95896.81;5074832;28;20181;-66
2023/04/21 15:13:28;;;;;;;4.43;2.67;;;;;;;15.73;51.16;95900.72;5074917;28;20131;-66
2023/04/21 15:15:55;;;;;;;5.05;3.33;;;;;;;15.64;50.65;95896.91;5074672;28;20044;-66
2023/04/21 15:18:22;;;;;;;6.28;2.80;;;;;;;15.58;51.75;95898.19;5074818;28;20102;-66
2023/04/21 15:20:51;;;;;;;3.53;2.88;;;;;;;15.53;51.51;95898.50;5074851;28;20053;-66
2023/04/21 15:23:19;;;;;;;3.75;2.83;;;;;;;15.35;52.09;95911.13;5074500;28;20482;-66
2023/04/21 15:25:47;;;;;;;3.17;2.80;;;;;;;15.37;52.60;95897.84;5074575;28;20047;-66
2023/04/21 15:28:14;;;;;;;9.82;3.17;;;;;;;15.35;54.68;95905.03;5074470;28;20530;-66
2023/04/21 15:30:45;;;;;;;6.22;3.13;;;;;;;15.19;56.04;95907.84;5074340;28;20048;-66
2023/04/21 15:33:13;;;;;;;4.22;2.88;;;;;;;15.19;56.26;95907.84;5074425;28;20053;-66
2023/04/21 15:35:41;;;;;;;3.60;3.17;;;;;;;15.10;56.13;95906.66;5074250;28;20117;-66
2023/04/21 15:38:09;;;;;;;5.28;4.00;;;;;;;15.18;58.41;95907.00;5074131;28;20135;-66
2023/04/21 15:40:36;;;;;;;7.57;4.03;;;;;;;15.22;59.11;95910.28;5074120;28;20053;-66
2023/04/21 15:43:04;;;;;;;4.82;3.40;;;;;;;15.00;60.49;95911.72;5074259;28;20041;-66
2023/04/21 15:45:32;;;;;;;5.18;3.60;;;;;;;14.93;60.67;95907.78;5074272;28;20044;-66
2023/04/21 15:47:59;;;;;;;5.20;3.95;;;;;;;14.85;60.99;95910.91;5074309;28;20448;-66
2023/04/21 15:50:28;;;;;;;8.98;3.60;;;;;;;14.74;60.85;95906.31;5074113;28;20045;-66
2023/04/21 15:52:56;;;;;;;5.07;3.47;;;;;;;14.59;61.79;95902.88;5073935;28;20049;-66
2023/04/21 15:55:26;;;;;;;6.07;3.78;;;;;;;14.55;62.31;95909.28;5073924;28;20048;-66
2023/04/21 15:57:54;;;;;;;4.65;3.30;;;;;;;14.49;63.16;95910.53;5073653;28;20055;-66
2023/04/21 16:00:21;;;;;;;4.55;3.65;;;;;;;14.47;62.79;95915.91;5073751;28;20482;-66
2023/04/21 16:02:49;;;;;;;7.00;3.80;;;;;;;14.53;64.16;95917.28;5073824;28;20040;-66
2023/04/21 16:05:18;;;;;;;5.30;4.45;;;;;;;14.47;64.66;95913.25;5073685;28;20045;-66
2023/04/21 16:07:45;;;;;;;6.65;4.30;;;;;;;14.46;65.64;95922.13;5073556;28;20064;-66
2023/04/21 16:10:12;;;;;;;5.60;4.00;;;;;;;14.38;67.23;95921.72;5073622;28;20048;-66
2023/04/21 16:12:43;;;;;;;6.45;3.95;;;;;;;14.19;67.94;95928.16;5073550;28;20048;-66
2023/04/21 16:15:20;;;;;;;4.85;4.20;;;;;;;14.01;68.97;95931.00;5073596;28;20094;-66
2023/04/21 16:17:48;;;;;;;5.93;4.20;;;;;;;13.90;69.75;95941.31;5073454;28;20040;-66
2023/04/21 16:20:15;;;;;;;6.20;4.50;;;;;;;13.73;71.84;95943.19;5073345;28;20056;-66
2023/04/21 16:22:46;;;;;;;8.18;4.95;;;;;;;13.57;73.54;95951.16;5073440;28;20169;-66
2023/04/21 16:25:17;;;;;;;5.00;4.50;;;;;;;13.47;74.44;95940.31;5073651;28;20051;-66
2023/04/21 16:27:46;;;;;;;8.38;4.68;;;;;;;13.35;75.06;95956.78;5073369;28;20498;-66
2023/04/21 16:30:14;;;;;;;7.38;5.28;;;;;;;13.24;76.55;95960.88;5073475;28;20074;-67
2023/04/21 16:32:42;;;;;;;7.53;4.88;;;;;;;13.07;77.06;95950.53;5073298;28;20057;-66
2023/04/21 16:35:10;;;;;;;5.10;4.60;;;;;;;12.92;76.66;95960.97;5073304;28;20102;-66
2023/04/21 16:37:41;;;;;;;6.30;4.35;;;;;;;12.86;75.42;95959.50;5073251;28;20052;-66
2023/04/21 16:40:10;;;;;;;9.52;4.55;;;;;;;12.80;75.77;95959.03;5073107;28;20506;-66
2023/04/21 16:42:38;;;;;;;8.20;4.97;;;;;;;12.71;76.28;95969.13;5073059;28;20049;-66
2023/04/21 16:45:08;;;;;;;8.70;4.70;;;;;;;12.60;72.71;95966.22;5073215;28;20054;-66
2023/04/21 16:47:42;;;;;;;5.57;3.25;;;;;;;12.50;72.05;95974.59;5072653;28;20486;-66
2023/04/21 16:50:11;;;;;;;5.95;3.22;;;;;;;12.42;71.74;95968.94;5072994;28;20056;-66
2023/04/21 16:52:38;;;;;;;6.88;3.80;;;;;;;12.37;71.53;95969.19;5073077;28;20045;-66
2023/04/21 16:55:06;;;;;;;7.43;3.58;;;;;;;12.46;71.56;95980.94;5073112;28;20052;-66
2023/04/21 16:57:34;;;;;;;5.18;3.33;;;;;;;12.49;70.12;95982.56;5073167;28;20080;-66